Time;durP1;ratioP1;P1;durP2;ratioP2;P2;SDS_P1;SDS_P2;PMS_P1;PMS_P2;Temp;Humidity;BMP_temperature;BMP_pressure;BME280_temperature;BME280_humidity;BME280_pressure;Samples;Min_cycle;Max_cycle;Signal;HPM_P1;HPM_P2
2024/01/06 00:00:33;;;;;;;27.27;13.85;;;;;;;4.72;100.00;99556.81;4927042;29;20057;-80
2024/01/06 00:02:59;;;;;;;22.00;12.35;;;;;;;4.65;100.00;99550.78;4910103;29;20055;-81
2024/01/06 00:05:26;;;;;;;24.90;14.63;;;;;;;4.67;100.00;99559.44;4907724;29;20484;-83
2024/01/06 00:07:55;;;;;;;25.05;14.63;;;;;;;4.65;100.00;99563.75;4927527;29;21203;-81
2024/01/06 00:10:23;;;;;;;27.70;15.20;;;;;;;4.68;100.00;99568.06;4907174;29;20040;-83
2024/01/06 00:12:50;;;;;;;21.10;13.70;;;;;;;4.71;100.00;99560.31;4906058;29;20488;-82
2024/01/06 00:15:16;;;;;;;22.58;12.90;;;;;;;4.75;100.00;99564.59;4939657;29;20134;-82
2024/01/06 00:17:43;;;;;;;20.40;12.70;;;;;;;4.77;100.00;99568.94;4937648;29;20087;-83
2024/01/06 00:20:10;;;;;;;21.40;12.57;;;;;;;4.78;100.00;99565.47;4918308;29;20146;-82
2024/01/06 00:22:36;;;;;;;24.55;14.40;;;;;;;4.76;100.00;99566.34;4911747;29;20051;-83
2024/01/06 00:25:03;;;;;;;20.48;12.75;;;;;;;4.68;100.00;99566.34;4925626;29;20039;-81
2024/01/06 00:27:29;;;;;;;20.77;13.05;;;;;;;4.69;100.00;99572.38;4942602;29;20042;-83
2024/01/06 00:29:56;;;;;;;21.65;12.38;;;;;;;4.71;100.00;99574.13;4906518;29;20051;-84
2024/01/06 00:32:22;;;;;;;24.38;14.60;;;;;;;4.73;100.00;99568.91;4913228;29;20513;-82
2024/01/06 00:34:50;;;;;;;23.10;13.07;;;;;;;4.73;100.00;99576.69;4926876;29;20047;-81
2024/01/06 00:37:16;;;;;;;23.17;13.02;;;;;;;4.76;100.00;99574.13;4919902;29;20666;-81
2024/01/06 00:39:43;;;;;;;22.67;12.68;;;;;;;4.76;100.00;99571.53;4928823;29;20620;-80
2024/01/06 00:42:09;;;;;;;20.50;12.25;;;;;;;4.74;100.00;99570.66;4924760;29;20389;-83
2024/01/06 00:44:39;;;;;;;20.50;11.43;;;;;;;4.68;100.00;99568.94;4922281;29;20094;-82
2024/01/06 00:47:06;;;;;;;33.30;13.88;;;;;;;4.61;100.00;99573.25;4936912;29;20170;-83
2024/01/06 00:49:32;;;;;;;20.23;11.65;;;;;;;4.58;100.00;99572.44;4905815;29;20127;-82
2024/01/06 00:51:59;;;;;;;26.35;13.10;;;;;;;4.56;100.00;99576.75;4919339;29;20138;-84
2024/01/06 00:54:25;;;;;;;19.10;10.82;;;;;;;4.63;100.00;99575.88;4926930;29;20396;-81
2024/01/06 00:56:52;;;;;;;25.23;13.13;;;;;;;4.65;100.00;99579.31;4924606;29;20062;-81
2024/01/06 00:59:18;;;;;;;22.70;12.35;;;;;;;4.70;100.00;99581.91;4922082;29;20409;-83
2024/01/06 01:01:46;;;;;;;20.92;11.88;;;;;;;4.75;100.00;99587.94;4908920;29;20048;-81
2024/01/06 01:04:12;;;;;;;22.92;12.52;;;;;;;4.75;100.00;99591.38;4920452;29;20405;-82
2024/01/06 01:06:39;;;;;;;22.10;12.68;;;;;;;4.70;100.00;99589.69;4921603;29;20230;-83
2024/01/06 01:09:06;;;;;;;22.10;12.88;;;;;;;4.65;100.00;99594.84;4919359;29;20329;-81
2024/01/06 01:11:34;;;;;;;17.77;11.40;;;;;;;4.66;100.00;99606.13;4908945;29;20483;-82
2024/01/06 01:14:04;;;;;;;20.20;11.90;;;;;;;4.57;100.00;99602.66;4904894;29;20175;-83
2024/01/06 01:16:32;;;;;;;23.77;12.65;;;;;;;4.57;100.00;99605.25;4899244;29;20074;-80
2024/01/06 01:18:59;;;;;;;20.42;12.15;;;;;;;4.47;100.00;99613.88;4907972;29;20097;-82
2024/01/06 01:21:25;;;;;;;22.77;13.52;;;;;;;4.46;100.00;99620.81;4924055;29;20105;-82
2024/01/06 01:23:52;;;;;;;19.10;11.88;;;;;;;4.54;100.00;99622.53;4907729;29;20531;-82
2024/01/06 01:26:18;;;;;;;20.42;11.27;;;;;;;4.53;100.00;99623.41;4912534;29;20043;-83
2024/01/06 01:28:45;;;;;;;20.40;12.48;;;;;;;4.53;100.00;99626.84;4907770;29;20134;-80
2024/01/06 01:31:12;;;;;;;18.92;11.88;;;;;;;4.53;100.00;99634.63;4922999;29;20442;-84
2024/01/06 01:33:39;;;;;;;23.77;13.07;;;;;;;4.56;100.00;99634.63;4910019;29;20051;-83
2024/01/06 01:36:08;;;;;;;19.65;12.48;;;;;;;4.55;100.00;99627.72;4907821;29;20062;-82
2024/01/06 01:38:35;;;;;;;20.77;12.35;;;;;;;4.59;100.00;99633.78;4928236;29;20084;-82
2024/01/06 01:41:01;;;;;;;19.58;12.38;;;;;;;4.53;100.00;99623.41;4910472;29;20046;-83
2024/01/06 01:43:28;;;;;;;20.77;11.57;;;;;;;4.52;100.00;99627.72;4928387;29;20182;-81
2024/01/06 01:45:57;;;;;;;21.27;12.23;;;;;;;4.53;100.00;99626.84;4909865;29;20051;-81
2024/01/06 01:48:25;;;;;;;21.00;11.88;;;;;;;4.55;100.00;99640.69;4913986;29;20047;-81
2024/01/06 01:50:54;;;;;;;19.15;12.05;;;;;;;4.60;100.00;99632.88;4910831;29;20126;-83
2024/01/06 01:53:21;;;;;;;19.50;11.73;;;;;;;4.55;100.00;99630.31;4909292;29;20051;-83
2024/01/06 01:55:49;;;;;;;19.35;12.18;;;;;;;4.53;100.00;99631.19;4937752;29;20059;-82
2024/01/06 01:58:17;;;;;;;22.17;12.82;;;;;;;4.55;100.00;99638.09;4910582;29;20513;-81
2024/01/06 02:00:43;;;;;;;24.17;12.50;;;;;;;4.51;100.00;99641.56;4920082;29;20077;-82
2024/01/06 02:03:13;;;;;;;22.23;11.40;;;;;;;4.35;100.00;99639.81;4909689;29;20055;-82
2024/01/06 02:05:40;;;;;;;19.60;11.98;;;;;;;4.36;100.00;99637.22;4925086;29;20047;-83
2024/01/06 02:08:09;;;;;;;20.75;12.18;;;;;;;4.35;100.00;99639.81;4910460;29;20051;-83
2024/01/06 02:10:35;;;;;;;21.55;11.77;;;;;;;4.35;100.00;99640.66;4936100;29;20043;-80
2024/01/06 02:13:10;;;;;;;17.85;11.75;;;;;;;4.38;100.00;99640.69;4925253;29;20050;-83
2024/01/06 02:15:38;;;;;;;23.08;13.25;;;;;;;4.40;100.00;99651.91;4917924;29;20106;-81
2024/01/06 02:18:05;;;;;;;21.67;11.80;;;;;;;4.34;100.00;99648.44;4903985;29;20062;-81
2024/01/06 02:20:32;;;;;;;20.85;12.18;;;;;;;4.32;100.00;99652.78;4899269;29;20046;-81
2024/01/06 02:23:02;;;;;;;20.88;12.82;;;;;;;4.33;100.00;99649.31;4939183;29;20511;-81
2024/01/06 02:25:29;;;;;;;21.08;11.50;;;;;;;4.41;100.00;99660.56;4906697;29;20059;-82
2024/01/06 02:27:56;;;;;;;20.92;12.35;;;;;;;4.44;100.00;99658.81;4939857;29;20043;-80
2024/01/06 02:30:22;;;;;;;24.05;11.88;;;;;;;4.47;100.00;99663.13;4921499;29;20501;-82
2024/01/06 02:32:51;;;;;;;19.63;11.88;;;;;;;4.45;100.00;99655.34;4937925;29;20085;-82
2024/01/06 02:35:18;;;;;;;22.38;11.75;;;;;;;4.44;100.00;99664.00;4922580;29;20509;-82
2024/01/06 02:37:45;;;;;;;21.67;12.20;;;;;;;4.49;100.00;99666.59;4922987;29;20517;-80
2024/01/06 02:40:12;;;;;;;21.73;12.35;;;;;;;4.46;100.00;99661.44;4908525;29;20154;-82
2024/01/06 02:42:39;;;;;;;16.67;10.70;;;;;;;4.49;100.00;99673.53;4922683;29;20074;-82
2024/01/06 02:45:08;;;;;;;24.23;12.30;;;;;;;4.50;100.00;99664.84;4923161;29;20046;-82
2024/01/06 02:47:34;;;;;;;19.83;11.07;;;;;;;4.52;100.00;99676.09;4920905;29;20044;-80
2024/01/06 02:50:05;;;;;;;22.17;13.32;;;;;;;4.51;100.00;99677.84;4920015;29;20146;-82
2024/01/06 02:52:32;;;;;;;18.67;11.45;;;;;;;4.49;100.00;99686.47;4919231;29;20474;-83
2024/01/06 02:54:58;;;;;;;18.88;11.02;;;;;;;4.55;100.00;99681.28;4925338;29;20051;-81
2024/01/06 02:57:27;;;;;;;22.25;12.25;;;;;;;4.53;100.00;99677.84;4907125;29;20083;-83
2024/01/06 02:59:54;;;;;;;22.02;12.05;;;;;;;4.49;100.00;99682.16;4922761;29;20059;-80
2024/01/06 03:02:20;;;;;;;22.23;11.77;;;;;;;4.46;100.00;99684.75;4918503;29;20047;-83
2024/01/06 03:04:47;;;;;;;21.52;11.65;;;;;;;4.50;100.00;99673.50;4907064;29;20062;-82
2024/01/06 03:07:13;;;;;;;21.45;12.00;;;;;;;4.51;100.00;99680.44;4921102;29;20083;-83
2024/01/06 03:09:40;;;;;;;18.27;11.38;;;;;;;4.53;100.00;99680.41;4909712;29;20051;-81
2024/01/06 03:12:10;;;;;;;24.05;12.27;;;;;;;4.52;100.00;99681.28;4907685;29;20051;-81
2024/01/06 03:14:36;;;;;;;21.23;12.25;;;;;;;4.45;100.00;99693.38;4905926;29;20492;-82
2024/01/06 03:17:03;;;;;;;18.90;10.52;;;;;;;4.37;100.00;99697.66;4912855;29;20054;-82
2024/01/06 03:19:31;;;;;;;19.90;11.88;;;;;;;4.29;100.00;99697.69;4914538;29;20583;-81
2024/01/06 03:21:57;;;;;;;24.52;12.38;;;;;;;4.30;100.00;99696.81;4928747;29;20131;-83
2024/01/06 03:24:26;;;;;;;19.92;11.38;;;;;;;4.23;100.00;99701.13;4926624;29;20055;-83
2024/01/06 03:26:52;;;;;;;20.50;12.02;;;;;;;4.29;100.00;99706.31;4906826;29;20058;-81
2024/01/06 03:29:19;;;;;;;19.17;11.48;;;;;;;4.26;100.00;99710.63;4922530;29;20058;-81
2024/01/06 03:31:46;;;;;;;19.15;11.50;;;;;;;4.31;100.00;99708.91;4911880;29;20050;-81
2024/01/06 03:34:13;;;;;;;19.88;11.52;;;;;;;4.38;100.00;99707.19;4909490;29;20058;-81
2024/01/06 03:36:40;;;;;;;18.88;12.00;;;;;;;4.28;100.00;99711.50;4925336;29;20058;-82
2024/01/06 03:39:08;;;;;;;19.73;12.10;;;;;;;4.29;100.00;99714.09;4913920;29;20055;-80
2024/01/06 03:41:36;;;;;;;19.63;10.60;;;;;;;4.27;100.00;99713.22;4925737;29;20046;-81
2024/01/06 03:44:05;;;;;;;19.35;11.65;;;;;;;4.28;100.00;99719.28;4929589;29;20046;-80
2024/01/06 03:46:35;;;;;;;21.83;11.60;;;;;;;4.23;100.00;99714.06;4926754;29;20095;-82
2024/01/06 03:49:05;;;;;;;24.60;12.45;;;;;;;4.24;100.00;99718.41;4930865;29;20524;-82
2024/01/06 03:51:31;;;;;;;21.08;10.70;;;;;;;4.27;100.00;99727.91;4928990;29;20122;-81
2024/01/06 03:53:58;;;;;;;26.35;12.30;;;;;;;4.24;100.00;99726.16;4928898;29;20765;-81
2024/01/06 03:56:24;;;;;;;22.92;11.45;;;;;;;4.19;100.00;99725.28;4928766;29;20126;-82
2024/01/06 03:58:51;;;;;;;19.42;12.48;;;;;;;4.14;100.00;99727.84;4911858;29;20051;-82
2024/01/06 04:01:21;;;;;;;21.33;11.65;;;;;;;4.19;100.00;99734.81;4924997;29;20374;-81
2024/01/06 04:03:47;;;;;;;20.30;11.20;;;;;;;4.18;100.00;99740.84;4911407;29;20165;-82
2024/01/06 04:06:14;;;;;;;21.48;11.77;;;;;;;4.01;100.00;99736.47;4924280;29;20421;-81
2024/01/06 04:08:41;;;;;;;24.48;12.80;;;;;;;3.93;100.00;99740.75;4891447;29;20513;-79
2024/01/06 04:11:08;;;;;;;26.33;13.93;;;;;;;3.88;100.00;99745.91;4925114;29;20107;-82
2024/01/06 04:13:34;;;;;;;22.75;12.77;;;;;;;3.80;100.00;99747.63;4929443;29;20106;-83
2024/01/06 04:16:01;;;;;;;21.92;12.35;;;;;;;3.86;100.00;99754.53;4944255;29;20097;-82
2024/01/06 04:18:27;;;;;;;23.92;13.65;;;;;;;3.88;100.00;99756.28;4910977;29;20146;-82
2024/01/06 04:20:54;;;;;;;22.85;12.43;;;;;;;3.95;100.00;99755.44;4923583;29;20051;-81
2024/01/06 04:23:20;;;;;;;23.00;12.63;;;;;;;3.99;100.00;99761.50;4913580;29;20055;-82
2024/01/06 04:25:48;;;;;;;26.20;13.43;;;;;;;3.98;100.00;99763.22;4914563;29;20521;-83
2024/01/06 04:28:16;;;;;;;25.23;13.18;;;;;;;3.96;100.00;99757.19;4925140;29;20751;-81
2024/01/06 04:30:43;;;;;;;27.17;13.52;;;;;;;3.94;100.00;99769.25;4913289;29;20524;-80
2024/01/06 04:33:10;;;;;;;22.75;12.93;;;;;;;3.92;100.00;99777.88;4913017;29;20071;-82
2024/01/06 04:35:36;;;;;;;21.33;12.18;;;;;;;3.91;100.00;99778.72;4928889;29;20058;-82
2024/01/06 04:38:03;;;;;;;22.50;12.23;;;;;;;3.94;100.00;99776.16;4928318;29;20139;-81
2024/01/06 04:40:30;;;;;;;20.92;12.05;;;;;;;3.91;100.00;99779.59;4938337;28;20036;-82
2024/01/06 04:42:56;;;;;;;23.85;12.73;;;;;;;3.93;100.00;99784.78;4944189;28;20103;-82
2024/01/06 04:45:23;;;;;;;23.77;12.43;;;;;;;3.89;100.00;99788.22;4930517;29;20053;-82
2024/01/06 04:47:51;;;;;;;26.08;13.55;;;;;;;3.87;100.00;99784.75;4926375;29;20056;-82
2024/01/06 04:50:18;;;;;;;24.05;13.77;;;;;;;3.88;100.00;99795.09;4918884;29;20472;-82
2024/01/06 04:52:45;;;;;;;26.85;13.43;;;;;;;3.87;100.00;99787.34;4924479;29;20055;-83
2024/01/06 04:55:11;;;;;;;22.20;12.75;;;;;;;3.88;100.00;99794.25;4924967;29;20051;-82
2024/01/06 04:57:41;;;;;;;23.55;12.68;;;;;;;3.77;100.00;99792.47;4912245;29;20047;-80
2024/01/06 05:00:08;;;;;;;23.90;12.38;;;;;;;3.78;100.00;99789.03;4923545;29;20047;-81
2024/01/06 05:02:35;;;;;;;29.05;15.48;;;;;;;3.78;100.00;99795.91;4928698;29;20050;-81
2024/01/06 05:05:02;;;;;;;23.30;12.63;;;;;;;3.75;100.00;99798.50;4910631;29;20054;-81
2024/01/06 05:07:29;;;;;;;25.48;13.50;;;;;;;3.82;100.00;99808.06;4914037;29;20077;-81
2024/01/06 05:09:56;;;;;;;29.20;14.18;;;;;;;3.87;100.00;99808.06;4927441;29;20089;-82
2024/01/06 05:12:23;;;;;;;26.90;14.93;;;;;;;3.88;100.00;99805.47;4911766;29;20047;-80
2024/01/06 05:14:50;;;;;;;23.10;12.45;;;;;;;3.79;100.00;99802.84;4926709;29;20051;-82
2024/01/06 05:17:16;;;;;;;24.17;12.98;;;;;;;3.84;100.00;99819.25;4928485;29;20422;-82
2024/01/06 05:19:43;;;;;;;29.40;14.23;;;;;;;3.82;100.00;99815.81;4924567;29;20417;-81
2024/01/06 05:22:09;;;;;;;24.17;12.75;;;;;;;3.84;100.00;99819.25;4926052;29;20497;-81
2024/01/06 05:24:36;;;;;;;24.67;13.18;;;;;;;3.76;100.00;99819.22;4939133;29;20126;-81
2024/01/06 05:27:07;;;;;;;28.05;13.05;;;;;;;3.81;100.00;99829.59;4920674;29;20341;-81
2024/01/06 05:29:34;;;;;;;20.10;12.68;;;;;;;3.82;100.00;99831.34;4908209;29;20183;-81
2024/01/06 05:32:01;;;;;;;23.60;13.38;;;;;;;3.83;100.00;99833.06;4895930;29;20165;-82
2024/01/06 05:34:27;;;;;;;24.90;13.30;;;;;;;3.87;100.00;99833.94;4910633;29;20135;-81
2024/01/06 05:36:54;;;;;;;21.55;12.10;;;;;;;3.87;100.00;99842.59;4925196;29;20052;-80
2024/01/06 05:39:20;;;;;;;25.25;14.70;;;;;;;3.89;100.00;99838.28;4906175;29;20130;-80
2024/01/06 05:41:47;;;;;;;22.13;12.88;;;;;;;3.85;100.00;99835.69;4896399;28;20040;-81
2024/01/06 05:44:14;;;;;;;24.63;12.45;;;;;;;3.80;100.00;99840.81;4927822;29;20059;-81
2024/01/06 05:46:41;;;;;;;25.73;13.68;;;;;;;3.78;100.00;99837.34;4921931;29;20055;-81
2024/01/06 05:49:11;;;;;;;26.05;12.95;;;;;;;3.80;100.00;99838.22;4904834;29;20083;-81
2024/01/06 05:51:37;;;;;;;20.33;12.27;;;;;;;3.80;100.00;99844.25;4928984;29;20115;-81
2024/01/06 05:54:04;;;;;;;23.70;13.02;;;;;;;3.78;100.00;99843.41;4925958;29;20682;-81
2024/01/06 05:56:30;;;;;;;26.17;13.65;;;;;;;3.76;100.00;99845.09;4911959;29;20381;-81
2024/01/06 05:58:57;;;;;;;25.55;12.15;;;;;;;3.79;100.00;99850.31;4910463;29;20142;-83
2024/01/06 06:01:24;;;;;;;27.42;12.88;;;;;;;3.78;100.00;99855.47;4922896;29;20126;-81
2024/01/06 06:03:51;;;;;;;28.15;13.00;;;;;;;3.78;100.00;99864.13;4910950;29;20047;-83
2024/01/06 06:06:18;;;;;;;26.25;13.88;;;;;;;3.73;100.00;99865.81;4936598;28;20061;-81
2024/01/06 06:08:45;;;;;;;25.38;13.68;;;;;;;3.66;100.00;99863.16;4925077;29;20055;-83
2024/01/06 06:11:11;;;;;;;27.45;13.23;;;;;;;3.72;100.00;99871.84;4921547;29;20413;-81
2024/01/06 06:13:40;;;;;;;21.23;12.02;;;;;;;3.64;100.00;99876.97;4910221;29;20573;-80
2024/01/06 06:16:10;;;;;;;29.90;12.80;;;;;;;3.71;100.00;99883.03;4908623;29;20132;-81
2024/01/06 06:18:36;;;;;;;26.65;13.15;;;;;;;3.69;100.00;99887.34;4923206;29;20509;-80
2024/01/06 06:21:03;;;;;;;30.60;13.57;;;;;;;3.64;100.00;99891.63;4914664;29;20361;-81
2024/01/06 06:23:31;;;;;;;28.70;14.30;;;;;;;3.61;100.00;99894.19;4923468;29;20074;-81
2024/01/06 06:25:59;;;;;;;29.50;13.77;;;;;;;3.64;100.00;99901.97;4909601;29;20051;-81
2024/01/06 06:28:28;;;;;;;26.83;12.68;;;;;;;3.68;100.00;99895.97;4921938;29;20512;-82
2024/01/06 06:31:02;;;;;;;23.77;14.32;;;;;;;3.68;100.00;99908.91;4923478;29;20052;-81
2024/01/06 06:33:29;;;;;;;22.55;12.73;;;;;;;3.63;100.00;99920.94;4910749;29;20456;-82
2024/01/06 06:35:55;;;;;;;28.67;13.95;;;;;;;3.58;100.00;99922.63;4920291;29;20066;-82
2024/01/06 06:38:22;;;;;;;23.52;12.23;;;;;;;3.46;100.00;99928.59;4925640;29;20459;-82
2024/01/06 06:40:49;;;;;;;30.80;14.50;;;;;;;3.44;100.00;99928.56;4937482;29;20073;-82
2024/01/06 06:43:15;;;;;;;25.55;14.15;;;;;;;3.48;100.00;99930.34;4922187;29;20089;-82
2024/01/06 06:45:41;;;;;;;26.15;13.57;;;;;;;3.46;100.00;99938.94;4925422;29;20051;-81
2024/01/06 06:48:08;;;;;;;25.73;13.60;;;;;;;3.42;100.00;99938.03;4907117;29;20524;-81
2024/01/06 06:50:35;;;;;;;29.95;13.63;;;;;;;3.44;100.00;99936.34;4909649;29;20082;-83
2024/01/06 06:53:02;;;;;;;30.30;14.25;;;;;;;3.54;100.00;99942.44;4923975;29;20039;-81
2024/01/06 06:55:28;;;;;;;28.92;14.32;;;;;;;3.59;100.00;99947.66;4924159;29;20046;-81
2024/01/06 06:57:55;;;;;;;23.20;12.80;;;;;;;3.55;100.00;99951.94;4910603;29;20051;-81
2024/01/06 07:00:21;;;;;;;34.53;15.93;;;;;;;3.57;100.00;99946.78;4904199;29;20131;-83
2024/01/06 07:02:48;;;;;;;27.10;14.23;;;;;;;3.60;100.00;99947.69;4921488;29;20043;-80
2024/01/06 07:05:15;;;;;;;25.48;12.23;;;;;;;3.57;100.00;99964.91;4911768;29;20047;-82
2024/01/06 07:07:43;;;;;;;30.42;14.07;;;;;;;3.51;100.00;99963.13;4924107;29;20057;-82
2024/01/06 07:10:12;;;;;;;31.40;15.18;;;;;;;3.55;100.00;99962.28;4915669;29;20044;-80
2024/01/06 07:12:38;;;;;;;30.77;14.90;;;;;;;3.45;100.00;99965.66;4926939;29;20405;-81
2024/01/06 07:15:06;;;;;;;25.27;13.23;;;;;;;3.46;100.00;99965.66;4928969;29;20082;-82
2024/01/06 07:17:32;;;;;;;30.20;14.05;;;;;;;3.55;100.00;99961.44;4927587;29;20071;-81
2024/01/06 07:19:59;;;;;;;29.95;14.77;;;;;;;3.55;100.00;99969.22;4928786;29;20055;-81
2024/01/06 07:22:26;;;;;;;32.03;14.73;;;;;;;3.47;100.00;99972.56;4925755;29;20044;-82
2024/01/06 07:24:52;;;;;;;29.67;14.35;;;;;;;3.52;100.00;99982.97;4916402;29;20602;-81
2024/01/06 07:27:19;;;;;;;33.72;15.27;;;;;;;3.47;100.00;99984.66;4922824;29;20512;-81
2024/01/06 07:29:51;;;;;;;31.35;15.25;;;;;;;3.47;100.00;99992.44;4935675;29;20043;-81
2024/01/06 07:32:18;;;;;;;32.55;15.38;;;;;;;3.52;100.00;99988.16;4908319;29;20044;-81
2024/01/06 07:34:44;;;;;;;29.23;15.80;;;;;;;3.55;100.00;99989.91;4919685;29;20059;-82
2024/01/06 07:37:11;;;;;;;30.73;16.17;;;;;;;3.57;100.00;99994.25;4929241;29;20047;-81
2024/01/06 07:39:37;;;;;;;28.92;16.08;;;;;;;3.53;100.00;99997.63;4920643;29;20048;-81
2024/01/06 07:42:05;;;;;;;30.90;15.20;;;;;;;3.52;100.00;100002.81;4925778;29;20631;-82
2024/01/06 07:44:31;;;;;;;32.80;14.70;;;;;;;3.44;100.00;100013.97;4917797;29;20055;-83
2024/01/06 07:46:57;;;;;;;34.78;17.38;;;;;;;3.30;100.00;100020.72;4924144;29;20070;-82
2024/01/06 07:49:24;;;;;;;29.88;14.35;;;;;;;3.27;100.00;100023.25;4923067;29;20090;-83
2024/01/06 07:51:50;;;;;;;30.77;13.77;;;;;;;3.39;100.00;100022.50;4928880;29;20427;-83
2024/01/06 07:54:20;;;;;;;30.15;17.05;;;;;;;3.46;100.00;100038.13;4930135;29;20046;-80
2024/01/06 07:56:46;;;;;;;30.85;16.83;;;;;;;3.45;100.00;100038.09;4910120;29;20059;-82
2024/01/06 07:59:16;;;;;;;33.17;16.30;;;;;;;3.54;100.00;100039.94;4921450;29;20059;-80
2024/01/06 08:01:43;;;;;;;35.42;15.95;;;;;;;3.56;100.00;100044.25;4927572;29;20078;-81
2024/01/06 08:04:10;;;;;;;33.63;16.52;;;;;;;3.57;100.00;100045.13;4912882;29;20591;-83
2024/01/06 08:06:36;;;;;;;35.42;16.98;;;;;;;3.42;100.00;100049.28;4920171;29;20086;-83
2024/01/06 08:09:03;;;;;;;33.97;17.27;;;;;;;3.33;100.00;100056.97;4924805;29;20059;-82
2024/01/06 08:11:30;;;;;;;33.00;16.27;;;;;;;3.22;100.00;100059.44;4935131;29;20040;-82
2024/01/06 08:13:57;;;;;;;38.20;16.25;;;;;;;3.29;100.00;100061.22;4922993;29;20051;-81
2024/01/06 08:16:23;;;;;;;31.73;16.88;;;;;;;3.42;100.00;100069.13;4926952;29;20123;-81
2024/01/06 08:18:50;;;;;;;39.75;18.63;;;;;;;3.38;100.00;100070.81;4906686;29;20057;-83
2024/01/06 08:21:16;;;;;;;36.78;15.88;;;;;;;3.33;100.00;100069.91;4912710;29;20781;-80
2024/01/06 08:23:43;;;;;;;36.83;17.00;;;;;;;3.16;100.00;100076.59;4925073;29;20066;-82
2024/01/06 08:26:09;;;;;;;32.88;14.77;;;;;;;3.20;100.00;100080.97;4908295;29;20066;-83
2024/01/06 08:28:36;;;;;;;35.38;18.27;;;;;;;3.29;100.00;100086.22;4926690;29;20753;-81
2024/01/06 08:31:02;;;;;;;35.78;16.88;;;;;;;3.22;100.00;100084.41;4926588;29;20653;-83
2024/01/06 08:33:29;;;;;;;32.35;16.08;;;;;;;3.18;100.00;100095.56;4937957;28;20051;-83
2024/01/06 08:35:56;;;;;;;33.30;16.00;;;;;;;3.28;100.00;100097.44;4922730;29;20720;-83
2024/01/06 08:38:25;;;;;;;33.25;17.08;;;;;;;3.21;100.00;100100.81;4915242;29;20866;-82
2024/01/06 08:40:53;;;;;;;34.08;15.75;;;;;;;3.12;100.00;100107.59;4907194;29;20059;-81
2024/01/06 08:43:19;;;;;;;32.55;15.90;;;;;;;3.22;100.00;100115.44;4923939;29;20055;-80
2024/01/06 08:45:46;;;;;;;30.73;15.80;;;;;;;3.09;100.00;100123.06;4912240;29;20101;-81
2024/01/06 08:48:13;;;;;;;37.60;16.10;;;;;;;3.09;100.00;100115.31;4930508;29;20067;-82
2024/01/06 08:50:40;;;;;;;35.08;16.70;;;;;;;3.20;100.00;100124.94;4932611;29;20050;-80
2024/01/06 08:53:06;;;;;;;29.40;15.20;;;;;;;3.13;100.00;100116.22;4912901;29;20267;-80
2024/01/06 08:55:33;;;;;;;37.42;17.13;;;;;;;3.10;100.00;100132.56;4910246;29;20059;-81
2024/01/06 08:57:59;;;;;;;31.05;16.08;;;;;;;3.14;100.00;100130.88;4928352;29;20051;-81
2024/01/06 09:00:27;;;;;;;29.88;14.85;;;;;;;3.07;100.00;100137.69;4916773;29;20048;-80
2024/01/06 09:02:53;;;;;;;29.88;15.63;;;;;;;3.10;100.00;100145.50;4911065;29;20047;-81
2024/01/06 09:05:20;;;;;;;34.33;15.45;;;;;;;3.21;100.00;100150.81;4911793;29;20078;-81
2024/01/06 09:07:49;;;;;;;35.08;15.73;;;;;;;3.16;100.00;100155.06;4927468;29;20055;-81
2024/01/06 09:10:18;;;;;;;32.38;14.65;;;;;;;3.25;100.00;100160.34;4909244;29;20503;-80
2024/01/06 09:12:45;;;;;;;34.72;15.10;;;;;;;3.22;100.00;100167.19;4915468;29;20043;-80
2024/01/06 09:15:12;;;;;;;35.90;14.93;;;;;;;3.34;100.00;100169.06;4926140;29;20047;-81
2024/01/06 09:17:38;;;;;;;29.30;12.95;;;;;;;3.36;100.00;100165.63;4926017;29;20054;-80
2024/01/06 09:20:06;;;;;;;26.58;13.70;;;;;;;3.37;100.00;100177.72;4935308;29;20424;-81
2024/01/06 09:22:32;;;;;;;28.20;15.20;;;;;;;3.42;100.00;100182.97;4920155;29;20054;-82
2024/01/06 09:24:59;;;;;;;32.92;13.43;;;;;;;3.38;100.00;100176.88;4912500;29;20054;-82
2024/01/06 09:27:25;;;;;;;26.42;12.57;;;;;;;3.26;100.00;100181.88;4932476;29;20134;-83
2024/01/06 09:29:52;;;;;;;31.45;14.85;;;;;;;3.34;100.00;100188.06;4922592;29;20058;-80
2024/01/06 09:32:19;;;;;;;25.92;12.68;;;;;;;3.20;100.00;100194.78;4912805;29;20493;-82
2024/01/06 09:34:45;;;;;;;26.27;12.68;;;;;;;3.14;100.00;100191.25;4924191;29;20566;-82
2024/01/06 09:37:12;;;;;;;24.17;13.98;;;;;;;3.07;100.00;100204.91;4939765;29;20043;-81
2024/01/06 09:39:39;;;;;;;24.73;13.13;;;;;;;3.10;100.00;100199.81;4919919;29;20541;-82
2024/01/06 09:42:06;;;;;;;23.73;11.57;;;;;;;3.13;100.00;100199.00;4910550;29;20394;-81
2024/01/06 09:44:35;;;;;;;24.45;11.75;;;;;;;3.17;100.00;100205.06;4925709;29;20058;-83
2024/01/06 09:47:03;;;;;;;22.40;11.77;;;;;;;2.95;100.00;100215.97;4911823;29;20051;-80
2024/01/06 09:49:33;;;;;;;27.33;13.68;;;;;;;3.02;100.00;100211.75;4936003;29;20524;-80
2024/01/06 09:52:01;;;;;;;24.35;12.27;;;;;;;3.13;100.00;100215.38;4912240;29;20575;-80
2024/01/06 09:54:33;;;;;;;30.60;12.60;;;;;;;3.24;100.00;100210.34;4921741;29;20512;-82
2024/01/06 09:57:03;;;;;;;24.85;13.43;;;;;;;3.16;100.00;100217.13;4908540;29;20052;-80
2024/01/06 09:59:34;;;;;;;22.90;11.68;;;;;;;3.23;100.00;100213.75;4908567;29;20633;-81
2024/01/06 10:02:05;;;;;;;23.20;11.73;;;;;;;3.30;100.00;100212.16;4937796;29;20035;-81
2024/01/06 10:04:32;;;;;;;20.52;10.25;;;;;;;3.25;100.00;100219.84;4920928;29;20377;-81
2024/01/06 10:06:59;;;;;;;19.35;10.30;;;;;;;3.29;100.00;100223.34;4916864;29;20121;-81
2024/01/06 10:09:30;;;;;;;21.60;11.93;;;;;;;3.11;100.00;100221.34;4922331;29;20050;-80
2024/01/06 10:11:58;;;;;;;23.55;11.55;;;;;;;3.09;100.00;100231.69;4919982;29;20167;-81
2024/01/06 10:14:25;;;;;;;18.13;10.45;;;;;;;3.09;100.00;100228.22;4897115;29;20058;-81
2024/01/06 10:16:55;;;;;;;19.95;10.32;;;;;;;3.03;100.00;100230.72;4936026;29;20118;-81
2024/01/06 10:19:21;;;;;;;22.52;11.35;;;;;;;2.92;100.00;100240.88;4905090;29;20079;-81
2024/01/06 10:21:48;;;;;;;17.08;9.25;;;;;;;2.96;100.00;100245.28;4940079;29;20058;-81
2024/01/06 10:24:15;;;;;;;22.08;9.90;;;;;;;2.97;100.00;100249.59;4900253;29;20505;-80
2024/01/06 10:26:42;;;;;;;20.65;11.02;;;;;;;3.10;100.00;100246.38;4895521;29;20055;-82
2024/01/06 10:29:08;;;;;;;20.08;10.43;;;;;;;2.96;100.00;100251.31;4910195;29;20059;-81
2024/01/06 10:31:35;;;;;;;20.83;10.05;;;;;;;2.98;100.00;100247.03;4924394;29;20047;-80
2024/01/06 10:34:04;;;;;;;19.30;9.38;;;;;;;3.04;100.00;100250.53;4920959;29;20047;-80
2024/01/06 10:36:31;;;;;;;20.08;10.07;;;;;;;3.11;100.00;100247.22;4909849;29;20056;-82
2024/01/06 10:38:58;;;;;;;20.80;11.13;;;;;;;3.20;100.00;100255.13;4936195;29;20059;-80
2024/01/06 10:41:25;;;;;;;19.05;10.30;;;;;;;3.13;100.00;100251.56;4923301;29;20050;-80
2024/01/06 10:43:52;;;;;;;18.92;11.15;;;;;;;3.12;100.00;100252.41;4912880;29;20062;-82
2024/01/06 10:46:25;;;;;;;16.42;9.75;;;;;;;3.10;100.00;100251.53;4943894;29;20074;-81
2024/01/06 10:48:53;;;;;;;17.85;10.60;;;;;;;3.09;100.00;100259.25;4925416;29;20051;-82
2024/01/06 10:51:24;;;;;;;18.33;10.45;;;;;;;3.08;100.00;100265.28;4940561;29;20091;-82
2024/01/06 10:53:51;;;;;;;16.45;9.57;;;;;;;3.00;100.00;100274.63;4928573;29;20130;-81
2024/01/06 10:56:21;;;;;;;19.08;9.95;;;;;;;2.87;100.00;100273.56;4915866;29;20512;-82
2024/01/06 10:58:51;;;;;;;21.30;11.20;;;;;;;2.93;100.00;100282.31;4910576;29;20146;-82
2024/01/06 11:01:24;;;;;;;21.10;10.85;;;;;;;2.85;100.00;100277.84;4916624;29;20047;-82
2024/01/06 11:03:51;;;;;;;22.17;10.82;;;;;;;2.88;100.00;100288.22;4915975;29;20162;-83
2024/01/06 11:06:22;;;;;;;21.45;10.75;;;;;;;2.86;100.00;100289.94;4928943;29;20114;-81
2024/01/06 11:09:12;;;;;;;25.42;12.52;;;;;;;2.96;100.00;100289.25;4928711;29;20133;-81
2024/01/06 11:11:39;;;;;;;20.38;11.27;;;;;;;3.03;100.00;100288.47;4924193;29;20047;-83
2024/01/06 11:14:27;;;;;;;21.67;12.35;;;;;;;3.13;100.00;100289.50;4924461;29;20048;-82